createdAt,value
2022-09-11T00:00:00.424Z,13.4
2022-09-11T00:01:00.533Z,13.4
2022-09-11T00:02:00.589Z,13.4
2022-09-11T00:03:00.322Z,13.4
2022-09-11T00:04:01.422Z,13.4
2022-09-11T00:05:00.233Z,13.4
2022-09-11T00:06:02.391Z,13.4
2022-09-11T00:07:00.230Z,13.4
2022-09-11T00:08:00.307Z,13.4
2022-09-11T00:09:03.756Z,13.4
2022-09-11T00:10:00.288Z,13.4
2022-09-11T00:11:02.903Z,13.4
2022-09-11T00:12:00.243Z,13.4
2022-09-11T00:13:00.234Z,13.4
2022-09-11T00:14:00.664Z,13.4
2022-09-11T00:15:00.269Z,13.4
2022-09-11T00:16:01.143Z,13.3
2022-09-11T00:17:00.286Z,13.3
2022-09-11T00:18:00.229Z,13.4
2022-09-11T00:19:07.589Z,13.4
2022-09-11T00:20:00.464Z,13.4
2022-09-11T00:21:01.454Z,13.4
2022-09-11T00:22:00.228Z,13.4
2022-09-11T00:23:01.168Z,13.4
2022-09-11T00:24:00.400Z,13.4
2022-09-11T00:25:00.255Z,13.4
2022-09-11T00:26:01.713Z,13.4
2022-09-11T00:27:00.232Z,13.4
2022-09-11T00:28:00.673Z,13.4
2022-09-11T00:29:00.248Z,13.4
2022-09-11T00:30:00.228Z,13.4
2022-09-11T00:31:03.492Z,13.4
2022-09-11T00:32:00.411Z,13.4
2022-09-11T00:33:00.229Z,13.4
2022-09-11T00:34:00.244Z,13.4
2022-09-11T00:35:00.276Z,13.4
2022-09-11T00:36:04.046Z,13.4
2022-09-11T00:37:00.227Z,13.4
2022-09-11T00:38:00.233Z,13.4
2022-09-11T00:39:00.491Z,13.4
2022-09-11T00:40:00.454Z,13.5
2022-09-11T00:41:02.739Z,13.5
2022-09-11T00:42:00.745Z,13.5
2022-09-11T00:43:00.239Z,13.5
2022-09-11T00:44:01.833Z,13.5
2022-09-11T00:45:04.403Z,13.6
2022-09-11T00:46:03.876Z,13.5
2022-09-11T00:47:05.744Z,13.5
2022-09-11T00:48:00.639Z,13.5
2022-09-11T00:49:04.744Z,13.5
2022-09-11T00:50:11.106Z,13.5
2022-09-11T00:51:02.352Z,13.5
2022-09-11T00:52:09.640Z,13.5
2022-09-11T00:53:04.071Z,13.5
2022-09-11T00:54:02.605Z,13.5
2022-09-11T00:55:06.151Z,13.4
2022-09-11T00:56:04.681Z,13.4
2022-09-11T00:57:05.336Z,13.4
2022-09-11T00:58:05.414Z,13.4
2022-09-11T00:59:00.936Z,13.4
2022-09-11T01:00:01.398Z,13.4
2022-09-11T01:01:01.262Z,13.4
2022-09-11T01:02:01.053Z,13.4
2022-09-11T01:03:00.511Z,13.4
2022-09-11T01:04:03.686Z,13.4
2022-09-11T01:05:01.309Z,13.4
2022-09-11T01:06:00.594Z,13.4
2022-09-11T01:07:00.689Z,13.4
2022-09-11T01:08:00.501Z,13.4
2022-09-11T01:09:00.266Z,13.4
2022-09-11T01:10:00.642Z,13.4
2022-09-11T01:11:20.127Z,13.4
2022-09-11T01:12:11.539Z,13.4
2022-09-11T01:13:08.345Z,13.4
2022-09-11T01:14:21.121Z,13.4
2022-09-11T01:15:04.573Z,13.4
2022-09-11T01:16:19.084Z,13.4
2022-09-11T01:17:12.354Z,13.4
2022-09-11T01:18:17.219Z,13.4
2022-09-11T01:19:17.617Z,13.4
2022-09-11T01:20:18.391Z,13.4
2022-09-11T01:21:11.544Z,13.4
2022-09-11T01:22:20.137Z,13.4
2022-09-11T01:23:20.136Z,13.4
2022-09-11T01:24:15.261Z,13.4
2022-09-11T01:25:20.157Z,13.4
2022-09-11T01:26:10.169Z,13.4
2022-09-11T01:27:20.136Z,13.5
2022-09-11T01:28:09.623Z,13.5
2022-09-11T01:29:07.473Z,13.5
2022-09-11T01:30:07.193Z,13.5
2022-09-11T01:31:07.355Z,13.5
2022-09-11T01:32:10.171Z,13.5
2022-09-11T01:33:20.154Z,13.5
2022-09-11T01:34:07.151Z,13.5
2022-09-11T01:35:11.481Z,13.5
2022-09-11T01:36:04.310Z,13.5
2022-09-11T01:37:06.065Z,13.5
2022-09-11T01:38:06.914Z,13.5
2022-09-11T01:39:01.940Z,13.5
2022-09-11T01:40:06.285Z,13.5
2022-09-11T01:41:13.506Z,13.5
2022-09-11T01:42:06.319Z,13.5
2022-09-11T01:43:05.716Z,13.5
2022-09-11T01:44:04.968Z,13.5
2022-09-11T01:45:03.080Z,13.5
2022-09-11T01:46:04.048Z,13.5
2022-09-11T01:47:02.017Z,13.5
2022-09-11T01:48:00.362Z,13.5
2022-09-11T01:49:05.783Z,13.5
2022-09-11T01:50:07.171Z,13.5
2022-09-11T01:51:02.331Z,13.5
2022-09-11T01:52:05.291Z,13.5
2022-09-11T01:53:04.008Z,13.5
2022-09-11T01:54:02.992Z,13.5
2022-09-11T01:55:08.246Z,13.5
2022-09-11T01:56:06.199Z,13.5
2022-09-11T01:57:06.630Z,13.5
2022-09-11T01:58:08.347Z,13.5
2022-09-11T01:59:04.971Z,13.5
2022-09-11T02:00:07.327Z,13.5
2022-09-11T02:01:08.016Z,13.5
2022-09-11T02:02:04.746Z,13.5
2022-09-11T02:03:07.995Z,13.5
2022-09-11T02:04:06.349Z,13.5
2022-09-11T02:05:14.690Z,13.5
2022-09-11T02:06:04.210Z,13.5
2022-09-11T02:07:06.567Z,13.4
2022-09-11T02:08:07.323Z,13.4
2022-09-11T02:09:05.360Z,13.4
2022-09-11T02:10:07.833Z,13.4
2022-09-11T02:11:10.396Z,13.4
2022-09-11T02:12:06.074Z,13.4
2022-09-11T02:13:09.911Z,13.4
2022-09-11T02:14:20.136Z,13.4
2022-09-11T02:15:00.371Z,13.4
2022-09-11T02:16:11.235Z,13.4
2022-09-11T02:17:17.504Z,13.3
2022-09-11T02:18:05.714Z,13.3
2022-09-11T02:19:04.812Z,13.3
2022-09-11T02:20:00.492Z,13.3
2022-09-11T02:21:00.245Z,13.3
2022-09-11T02:22:00.473Z,13.3
2022-09-11T02:23:00.281Z,13.2
2022-09-11T02:24:00.685Z,13.2
2022-09-11T02:25:00.270Z,13.2
2022-09-11T02:26:02.752Z,13.2
2022-09-11T02:27:03.684Z,13.2
2022-09-11T02:28:00.309Z,13.2
2022-09-11T02:29:00.353Z,13.1
2022-09-11T02:30:00.639Z,13.1
2022-09-11T02:31:00.252Z,13.1
2022-09-11T02:32:00.749Z,13.1
2022-09-11T02:33:00.334Z,13.1
2022-09-11T02:34:00.249Z,13.1
2022-09-11T02:35:00.499Z,13.1
2022-09-11T02:36:14.314Z,13.1
2022-09-11T02:37:10.224Z,13.1
2022-09-11T02:38:15.562Z,13.1
2022-09-11T02:39:15.410Z,13.1
2022-09-11T02:40:10.210Z,13.1
2022-09-11T02:41:17.647Z,13.1
2022-09-11T02:42:10.175Z,13.1
2022-09-11T02:43:03.491Z,13.1
2022-09-11T02:44:11.222Z,13.0
2022-09-11T02:45:11.185Z,13.0
2022-09-11T02:46:20.136Z,13.0
2022-09-11T02:47:12.877Z,13.0
2022-09-11T02:48:13.529Z,13.0
2022-09-11T02:49:17.504Z,13.0
2022-09-11T02:50:20.161Z,13.0
2022-09-11T02:51:20.406Z,13.0
2022-09-11T02:52:10.464Z,13.0
2022-09-11T02:53:09.249Z,13.0
2022-09-11T02:54:16.984Z,13.0
2022-09-11T02:55:17.860Z,12.9
2022-09-11T02:56:08.132Z,12.9
2022-09-11T02:57:08.808Z,12.9
2022-09-11T02:58:07.177Z,12.9
2022-09-11T02:59:07.890Z,12.9
2022-09-11T03:00:04.157Z,12.9
2022-09-11T03:01:02.069Z,12.9
2022-09-11T03:02:00.398Z,12.9
2022-09-11T03:03:00.297Z,12.9
2022-09-11T03:04:00.264Z,12.9
2022-09-11T03:05:00.279Z,12.9
2022-09-11T03:06:00.347Z,12.8
2022-09-11T03:07:00.328Z,12.8
2022-09-11T03:08:00.227Z,12.8
2022-09-11T03:09:00.295Z,12.8
2022-09-11T03:10:00.309Z,12.8
2022-09-11T03:11:00.290Z,12.8
2022-09-11T03:12:01.196Z,12.8
2022-09-11T03:13:00.228Z,12.8
2022-09-11T03:14:00.438Z,12.8
2022-09-11T03:15:00.274Z,12.8
2022-09-11T03:16:00.637Z,12.8
2022-09-11T03:17:00.735Z,12.9
2022-09-11T03:18:00.270Z,12.9
2022-09-11T03:19:00.275Z,12.9
2022-09-11T03:20:00.455Z,12.9
2022-09-11T03:21:00.511Z,12.9
2022-09-11T03:22:01.339Z,12.9
2022-09-11T03:23:00.226Z,12.9
2022-09-11T03:24:00.770Z,12.9
2022-09-11T03:25:00.231Z,12.9
2022-09-11T03:26:00.236Z,12.9
2022-09-11T03:27:00.263Z,12.9
2022-09-11T03:28:00.289Z,12.9
2022-09-11T03:29:00.336Z,12.9
2022-09-11T03:30:00.266Z,12.9
2022-09-11T03:31:00.259Z,12.9
2022-09-11T03:32:00.557Z,12.9
2022-09-11T03:33:00.236Z,12.9
2022-09-11T03:34:00.438Z,12.9
2022-09-11T03:35:00.428Z,12.9
2022-09-11T03:36:00.400Z,13.0
2022-09-11T03:37:00.339Z,13.0
2022-09-11T03:38:00.466Z,13.0
2022-09-11T03:39:00.875Z,13.0
2022-09-11T03:40:00.379Z,13.0
2022-09-11T03:41:00.729Z,13.0
2022-09-11T03:42:00.218Z,13.0
2022-09-11T03:43:00.234Z,13.0
2022-09-11T03:44:00.419Z,13.0
2022-09-11T03:45:00.251Z,13.0
2022-09-11T03:46:00.250Z,13.0
2022-09-11T03:47:00.243Z,13.0
2022-09-11T03:48:00.410Z,13.0
2022-09-11T03:49:01.282Z,13.0
2022-09-11T03:50:00.252Z,13.0
2022-09-11T03:51:00.355Z,13.0
2022-09-11T03:52:00.539Z,13.0
2022-09-11T03:53:01.990Z,13.0
2022-09-11T03:54:01.204Z,12.9
2022-09-11T03:55:00.460Z,12.9
2022-09-11T03:56:00.418Z,12.9
2022-09-11T03:57:00.433Z,12.9
2022-09-11T03:58:00.269Z,13.0
2022-09-11T03:59:00.240Z,13.0
2022-09-11T04:00:00.942Z,12.9
2022-09-11T04:01:00.422Z,12.9
2022-09-11T04:02:00.281Z,12.9
2022-09-11T04:03:00.245Z,12.9
2022-09-11T04:04:00.555Z,13.0
2022-09-11T04:05:00.353Z,13.0
2022-09-11T04:06:01.969Z,13.0
2022-09-11T04:07:00.223Z,13.0
2022-09-11T04:08:00.598Z,13.0
2022-09-11T04:09:00.222Z,13.0
2022-09-11T04:10:00.336Z,13.0
2022-09-11T04:11:04.373Z,13.0
2022-09-11T04:12:00.322Z,12.9
2022-09-11T04:13:00.220Z,12.9
2022-09-11T04:14:01.431Z,12.9
2022-09-11T04:15:00.245Z,12.9
2022-09-11T04:16:02.451Z,12.9
2022-09-11T04:17:00.223Z,12.9
2022-09-11T04:18:05.321Z,13.0
2022-09-11T04:19:00.314Z,13.0
2022-09-11T04:20:01.704Z,13.0
2022-09-11T04:21:04.792Z,13.0
2022-09-11T04:22:00.387Z,12.9
2022-09-11T04:23:00.224Z,13.0
2022-09-11T04:24:00.539Z,13.0
2022-09-11T04:25:00.248Z,13.0
2022-09-11T04:26:01.158Z,13.0
2022-09-11T04:27:00.964Z,13.0
2022-09-11T04:28:00.273Z,13.0
2022-09-11T04:29:00.330Z,13.0
2022-09-11T04:30:00.219Z,13.0
2022-09-11T04:31:02.661Z,13.0
2022-09-11T04:32:00.389Z,13.0
2022-09-11T04:33:00.246Z,13.0
2022-09-11T04:34:00.356Z,13.0
2022-09-11T04:35:00.227Z,13.0
2022-09-11T04:36:06.321Z,13.0
2022-09-11T04:37:00.219Z,13.0
2022-09-11T04:38:00.237Z,13.0
2022-09-11T04:39:00.405Z,13.0
2022-09-11T04:40:00.407Z,13.0
2022-09-11T04:41:01.896Z,13.0
2022-09-11T04:42:00.577Z,13.1
2022-09-11T04:43:00.873Z,13.0
2022-09-11T04:44:04.871Z,13.1
2022-09-11T04:45:00.228Z,13.1
2022-09-11T04:46:04.723Z,13.1
2022-09-11T04:47:00.227Z,13.1
2022-09-11T04:48:00.275Z,13.1
2022-09-11T04:49:00.225Z,13.1
2022-09-11T04:50:00.249Z,13.1
2022-09-11T04:51:03.326Z,13.1
2022-09-11T04:52:00.359Z,13.1
2022-09-11T04:53:00.477Z,13.1
2022-09-11T04:54:01.223Z,13.1
2022-09-11T04:55:00.408Z,13.1
2022-09-11T04:56:02.794Z,13.1
2022-09-11T04:57:00.371Z,13.2
2022-09-11T04:58:00.219Z,13.2
2022-09-11T04:59:03.952Z,13.2
2022-09-11T05:00:00.375Z,13.2
2022-09-11T05:01:00.635Z,13.2
2022-09-11T05:02:00.290Z,13.2
2022-09-11T05:03:00.223Z,13.2
2022-09-11T05:04:00.751Z,13.2
2022-09-11T05:05:00.219Z,13.2
2022-09-11T05:06:05.649Z,13.2
2022-09-11T05:07:00.276Z,13.2
2022-09-11T05:08:00.279Z,13.2
2022-09-11T05:09:03.196Z,13.3
2022-09-11T05:10:00.746Z,13.3
2022-09-11T05:11:00.259Z,13.3
2022-09-11T05:12:00.920Z,13.3
2022-09-11T05:13:00.213Z,13.3
2022-09-11T05:14:00.531Z,13.3
2022-09-11T05:15:00.225Z,13.3
2022-09-11T05:16:02.293Z,13.4
2022-09-11T05:17:00.358Z,13.4
2022-09-11T05:18:00.323Z,13.4
2022-09-11T05:19:00.991Z,13.4
2022-09-11T05:20:00.327Z,13.4
2022-09-11T05:21:03.045Z,13.4
2022-09-11T05:22:00.263Z,13.4
2022-09-11T05:23:00.224Z,13.4
2022-09-11T05:24:01.208Z,13.4
2022-09-11T05:25:00.228Z,13.4
2022-09-11T05:26:03.484Z,13.4
2022-09-11T05:27:00.284Z,13.4
2022-09-11T05:28:00.310Z,13.4
2022-09-11T05:29:03.532Z,13.5
2022-09-11T05:30:00.222Z,13.5
2022-09-11T05:31:00.250Z,13.5
2022-09-11T05:32:00.500Z,13.5
2022-09-11T05:33:00.225Z,13.5
2022-09-11T05:34:00.380Z,13.5
2022-09-11T05:35:00.284Z,13.5
2022-09-11T05:36:03.810Z,13.5
2022-09-11T05:37:00.286Z,13.5
2022-09-11T05:38:00.221Z,13.5
2022-09-11T05:39:00.314Z,13.5
2022-09-11T05:40:00.492Z,13.5
2022-09-11T05:41:00.257Z,13.5
2022-09-11T05:42:00.374Z,13.6
2022-09-11T05:43:00.273Z,13.6
2022-09-11T05:44:01.465Z,13.6
2022-09-11T05:45:00.226Z,13.6
2022-09-11T05:46:00.959Z,13.6
2022-09-11T05:47:00.229Z,13.6
2022-09-11T05:48:00.381Z,13.6
2022-09-11T05:49:00.270Z,13.7
2022-09-11T05:50:00.300Z,13.7
2022-09-11T05:51:03.182Z,13.7
2022-09-11T05:52:00.353Z,13.7
2022-09-11T05:53:00.218Z,13.7
2022-09-11T05:54:00.328Z,13.8
2022-09-11T05:55:00.311Z,13.8
2022-09-11T05:56:11.994Z,13.8
2022-09-11T05:57:03.486Z,13.8
2022-09-11T05:58:01.106Z,13.8
2022-09-11T05:59:00.481Z,13.8
2022-09-11T06:00:00.374Z,13.8
2022-09-11T06:01:03.460Z,13.8
2022-09-11T06:02:00.306Z,13.8
2022-09-11T06:03:00.217Z,13.9
2022-09-11T06:04:00.318Z,13.9
2022-09-11T06:05:00.306Z,13.9
2022-09-11T06:06:02.122Z,13.9
2022-09-11T06:07:00.250Z,13.9
2022-09-11T06:08:00.390Z,13.9
2022-09-11T06:09:00.437Z,13.9
2022-09-11T06:10:03.218Z,13.9
2022-09-11T06:11:02.222Z,13.9
2022-09-11T06:12:00.313Z,14.0
2022-09-11T06:13:00.284Z,14.0
2022-09-11T06:14:00.324Z,14.0
2022-09-11T06:15:00.234Z,14.0
2022-09-11T06:16:00.593Z,14.0
2022-09-11T06:17:00.269Z,14.0
2022-09-11T06:18:00.468Z,14.0
2022-09-11T06:19:00.445Z,14.1
2022-09-11T06:20:00.493Z,14.1
2022-09-11T06:21:03.851Z,14.1
2022-09-11T06:22:01.779Z,14.1
2022-09-11T06:23:00.235Z,14.1
2022-09-11T06:24:00.413Z,14.1
2022-09-11T06:25:00.260Z,14.1
2022-09-11T06:26:04.070Z,14.1
2022-09-11T06:27:00.273Z,14.1
2022-09-11T06:28:00.324Z,14.1
2022-09-11T06:29:00.367Z,14.1
2022-09-11T06:30:00.226Z,14.1
2022-09-11T06:31:00.637Z,14.1
2022-09-11T06:32:00.361Z,14.1
2022-09-11T06:33:00.232Z,14.1
2022-09-11T06:34:00.247Z,14.1
2022-09-11T06:35:00.239Z,14.1
2022-09-11T06:36:01.897Z,14.0
2022-09-11T06:37:00.240Z,14.1
2022-09-11T06:38:00.333Z,14.1
2022-09-11T06:39:00.226Z,14.1
2022-09-11T06:40:00.445Z,14.1
2022-09-11T06:41:00.912Z,14.1
2022-09-11T06:42:00.266Z,14.1
2022-09-11T06:43:00.234Z,14.1
2022-09-11T06:44:00.335Z,14.1
2022-09-11T06:45:00.247Z,14.1
2022-09-11T06:46:11.786Z,14.1
2022-09-11T06:47:00.229Z,14.1
2022-09-11T06:48:00.433Z,14.1
2022-09-11T06:49:00.403Z,14.1
2022-09-11T06:50:00.224Z,14.1
2022-09-11T06:51:04.277Z,14.1
2022-09-11T06:52:00.292Z,14.1
2022-09-11T06:53:00.238Z,14.1
2022-09-11T06:54:00.516Z,14.1
2022-09-11T06:55:00.258Z,14.1
2022-09-11T06:56:01.768Z,14.1
2022-09-11T06:57:00.219Z,14.0
2022-09-11T06:58:00.252Z,14.0
2022-09-11T06:59:00.232Z,14.0
2022-09-11T07:00:00.332Z,14.0
2022-09-11T07:01:02.674Z,14.0
2022-09-11T07:02:00.637Z,14.0
2022-09-11T07:03:00.217Z,14.0
2022-09-11T07:04:00.347Z,14.0
2022-09-11T07:05:00.221Z,14.0
2022-09-11T07:06:00.434Z,14.0
2022-09-11T07:07:00.551Z,14.0
2022-09-11T07:08:00.402Z,14.0
2022-09-11T07:09:00.707Z,14.0
2022-09-11T07:10:00.273Z,14.0
2022-09-11T07:11:02.240Z,14.0
2022-09-11T07:12:00.351Z,14.0
2022-09-11T07:13:00.231Z,14.0
2022-09-11T07:14:01.145Z,14.0
2022-09-11T07:15:00.223Z,14.1
2022-09-11T07:16:03.136Z,14.1
2022-09-11T07:17:00.215Z,14.1
2022-09-11T07:18:00.224Z,14.1
2022-09-11T07:19:00.271Z,14.1
2022-09-11T07:20:00.438Z,14.2
2022-09-11T07:21:03.512Z,14.2
2022-09-11T07:22:00.238Z,14.2
2022-09-11T07:23:00.258Z,14.2
2022-09-11T07:24:00.506Z,14.2
2022-09-11T07:25:02.066Z,14.3
2022-09-11T07:26:03.382Z,14.3
2022-09-11T07:27:00.242Z,14.4
2022-09-11T07:28:00.356Z,14.4
2022-09-11T07:29:00.244Z,14.4
2022-09-11T07:30:00.228Z,14.5
2022-09-11T07:31:10.227Z,14.5
2022-09-11T07:32:00.332Z,14.5
2022-09-11T07:33:00.252Z,14.5
2022-09-11T07:34:01.083Z,14.6
2022-09-11T07:35:00.222Z,14.6
2022-09-11T07:36:05.463Z,14.6
2022-09-11T07:37:00.227Z,14.6
2022-09-11T07:38:00.293Z,14.6
2022-09-11T07:39:00.690Z,14.7
2022-09-11T07:40:00.600Z,14.7
2022-09-11T07:41:00.249Z,14.7
2022-09-11T07:42:00.490Z,14.7
2022-09-11T07:43:00.243Z,14.8
2022-09-11T07:44:00.384Z,14.8
2022-09-11T07:45:00.263Z,14.9
2022-09-11T07:46:00.410Z,14.9
2022-09-11T07:47:00.269Z,15.0
2022-09-11T07:48:00.408Z,15.1
2022-09-11T07:49:00.255Z,15.2
2022-09-11T07:50:00.535Z,15.2
2022-09-11T07:51:02.840Z,15.2
2022-09-11T07:52:00.317Z,15.2
2022-09-11T07:53:00.257Z,15.3
2022-09-11T07:54:00.265Z,15.4
2022-09-11T07:55:00.240Z,15.5
2022-09-11T07:56:02.008Z,15.6
2022-09-11T07:57:00.221Z,15.6
2022-09-11T07:58:00.221Z,15.7
2022-09-11T07:59:00.566Z,15.8
2022-09-11T08:00:00.330Z,15.8
2022-09-11T08:01:01.545Z,15.8
2022-09-11T08:02:00.459Z,15.8
2022-09-11T08:03:00.225Z,15.8
2022-09-11T08:04:02.657Z,15.8
2022-09-11T08:05:00.222Z,15.8
2022-09-11T08:06:04.232Z,15.8
2022-09-11T08:07:00.254Z,15.8
2022-09-11T08:08:00.377Z,15.7
2022-09-11T08:09:06.355Z,15.6
2022-09-11T08:10:23.688Z,15.6
2022-09-11T08:11:11.450Z,15.5
2022-09-11T08:12:00.390Z,15.4
2022-09-11T08:13:00.521Z,15.5
2022-09-11T08:14:00.315Z,15.6
2022-09-11T08:15:00.228Z,15.6
2022-09-11T08:16:00.934Z,15.7
2022-09-11T08:17:00.317Z,15.8
2022-09-11T08:18:00.612Z,15.8
2022-09-11T08:19:01.071Z,15.8
2022-09-11T08:20:00.374Z,15.7
2022-09-11T08:21:02.157Z,15.7
2022-09-11T08:22:00.313Z,15.7
2022-09-11T08:23:00.248Z,15.7
2022-09-11T08:24:00.674Z,15.7
2022-09-11T08:25:00.317Z,15.7
2022-09-11T08:26:06.124Z,15.8
2022-09-11T08:27:00.258Z,15.8
2022-09-11T08:28:00.303Z,15.7
2022-09-11T08:29:00.254Z,15.7
2022-09-11T08:30:00.314Z,15.8
2022-09-11T08:31:00.570Z,15.8
2022-09-11T08:32:02.221Z,15.8
2022-09-11T08:33:00.221Z,15.8
2022-09-11T08:34:00.241Z,15.8
2022-09-11T08:35:00.221Z,15.9
2022-09-11T08:36:03.122Z,15.9
2022-09-11T08:37:00.247Z,16.0
2022-09-11T08:38:01.199Z,16.0
2022-09-11T08:39:00.300Z,16.0
2022-09-11T08:40:00.440Z,16.0
2022-09-11T08:41:20.158Z,15.9
2022-09-11T08:42:07.483Z,15.9
2022-09-11T08:43:02.333Z,15.6
2022-09-11T08:44:14.147Z,15.5
2022-09-11T08:45:01.618Z,15.5
2022-09-11T08:46:05.168Z,15.6
2022-09-11T08:47:08.623Z,15.6
2022-09-11T08:48:00.462Z,15.6
2022-09-11T08:49:01.230Z,15.6
2022-09-11T08:50:11.140Z,15.4
2022-09-11T08:51:00.399Z,15.3
2022-09-11T08:52:02.194Z,15.4
2022-09-11T08:53:01.619Z,15.2
2022-09-11T08:54:01.396Z,15.3
2022-09-11T08:55:01.323Z,15.3
2022-09-11T08:56:09.945Z,15.3
2022-09-11T08:57:13.428Z,15.3
2022-09-11T08:58:15.898Z,15.3
2022-09-11T08:59:12.749Z,15.3
2022-09-11T09:00:16.710Z,15.3
2022-09-11T09:01:23.744Z,15.3
2022-09-11T09:02:17.214Z,15.3
2022-09-11T09:03:20.157Z,15.3
2022-09-11T09:04:01.262Z,15.3
2022-09-11T09:05:17.502Z,15.4
2022-09-11T09:06:20.135Z,15.4
2022-09-11T09:07:17.567Z,15.4
2022-09-11T09:08:15.602Z,15.4
2022-09-11T09:09:11.106Z,15.4
2022-09-11T09:10:20.131Z,15.5
2022-09-11T09:11:15.779Z,15.5
2022-09-11T09:12:15.360Z,15.5
2022-09-11T09:13:20.125Z,15.6
2022-09-11T09:14:08.936Z,15.6
2022-09-11T09:15:17.836Z,15.7
2022-09-11T09:16:20.209Z,15.8
2022-09-11T09:17:06.464Z,15.8
2022-09-11T09:18:09.779Z,15.9
2022-09-11T09:19:14.259Z,15.9
2022-09-11T09:20:07.577Z,15.9
2022-09-11T09:21:08.853Z,16.0
2022-09-11T09:22:01.229Z,16.0
2022-09-11T09:23:05.731Z,16.0
2022-09-11T09:24:04.158Z,16.0
2022-09-11T09:25:05.093Z,15.9
2022-09-11T09:26:00.224Z,15.9
2022-09-11T09:27:01.652Z,15.7
2022-09-11T09:28:07.467Z,15.7
2022-09-11T09:29:04.472Z,15.7
2022-09-11T09:30:04.676Z,15.7
2022-09-11T09:31:07.328Z,15.8
2022-09-11T09:32:04.926Z,15.9
2022-09-11T09:33:13.392Z,15.9
2022-09-11T09:34:05.612Z,16.0
2022-09-11T09:35:09.357Z,16.0
2022-09-11T09:36:10.244Z,16.0
2022-09-11T09:37:05.726Z,16.0
2022-09-11T09:38:00.274Z,16.1
2022-09-11T09:39:01.180Z,16.1
2022-09-11T09:40:04.217Z,16.2
2022-09-11T09:41:14.338Z,16.3
2022-09-11T09:42:14.187Z,16.4
2022-09-11T09:43:11.108Z,16.4
2022-09-11T09:44:03.487Z,16.4
2022-09-11T09:45:20.136Z,16.5
2022-09-11T09:46:17.024Z,16.6
2022-09-11T09:47:00.279Z,16.6
2022-09-11T09:48:00.759Z,16.6
2022-09-11T09:49:00.374Z,16.5
2022-09-11T09:50:00.274Z,16.6
2022-09-11T09:51:00.273Z,16.7
2022-09-11T09:52:11.731Z,16.8
2022-09-11T09:53:09.347Z,16.8
2022-09-11T09:54:00.700Z,16.9
2022-09-11T09:55:04.787Z,17.0
2022-09-11T09:56:02.742Z,16.9
2022-09-11T09:57:05.355Z,16.9
2022-09-11T09:58:00.224Z,17.0
2022-09-11T09:59:07.774Z,17.0
2022-09-11T10:00:04.168Z,17.0
2022-09-11T10:01:00.334Z,17.0
2022-09-11T10:02:00.569Z,17.0
2022-09-11T10:03:20.124Z,17.0
2022-09-11T10:04:15.416Z,17.0
2022-09-11T10:05:17.687Z,17.0
2022-09-11T10:06:00.268Z,17.0
2022-09-11T10:07:09.917Z,17.0
2022-09-11T10:08:03.001Z,17.0
2022-09-11T10:09:03.313Z,17.0
2022-09-11T10:10:00.266Z,17.0
2022-09-11T10:11:02.883Z,17.0
2022-09-11T10:12:03.824Z,16.9
2022-09-11T10:13:19.049Z,16.8
2022-09-11T10:14:00.350Z,16.7
2022-09-11T10:15:02.026Z,16.7
2022-09-11T10:16:02.534Z,16.7
2022-09-11T10:17:01.304Z,16.7
2022-09-11T10:18:20.123Z,16.6
2022-09-11T10:19:00.250Z,16.6
2022-09-11T10:20:17.499Z,16.7
2022-09-11T10:21:10.163Z,16.7
2022-09-11T10:22:20.128Z,16.8
2022-09-11T10:23:20.126Z,16.9
2022-09-11T10:24:12.740Z,16.9
2022-09-11T10:25:01.171Z,16.9
2022-09-11T10:26:00.267Z,17.0
2022-09-11T10:27:02.083Z,17.1
2022-09-11T10:28:03.788Z,17.1
2022-09-11T10:29:05.955Z,17.2
2022-09-11T10:30:02.412Z,17.2
2022-09-11T10:31:02.338Z,17.3
2022-09-11T10:32:01.556Z,17.5
2022-09-11T10:33:04.547Z,17.7
2022-09-11T10:34:00.399Z,17.5
2022-09-11T10:35:02.407Z,17.5
2022-09-11T10:36:02.946Z,17.6
2022-09-11T10:37:04.353Z,17.6
2022-09-11T10:38:12.888Z,17.7
2022-09-11T10:39:00.959Z,17.7
2022-09-11T10:40:06.973Z,17.8
2022-09-11T10:41:06.471Z,17.7
2022-09-11T10:42:06.611Z,17.6
2022-09-11T10:43:00.338Z,17.6
2022-09-11T10:44:02.654Z,17.4
2022-09-11T10:45:13.167Z,17.2
2022-09-11T10:46:03.863Z,17.2
2022-09-11T10:47:13.593Z,17.5
2022-09-11T10:48:14.016Z,17.7
2022-09-11T10:49:01.232Z,17.7
2022-09-11T10:50:17.654Z,17.8
2022-09-11T10:51:06.536Z,17.8
2022-09-11T10:52:10.160Z,18.0
2022-09-11T10:53:18.965Z,18.0
2022-09-11T10:54:11.205Z,18.0
2022-09-11T10:55:08.415Z,18.0
2022-09-11T10:56:02.872Z,17.9
2022-09-11T10:57:12.407Z,18.0
2022-09-11T10:58:07.960Z,18.0
2022-09-11T10:59:15.112Z,18.1
2022-09-11T11:00:10.167Z,18.1
2022-09-11T11:01:00.511Z,18.2
2022-09-11T11:02:00.354Z,18.2
2022-09-11T11:03:10.170Z,18.1
2022-09-11T11:04:00.344Z,18.0
2022-09-11T11:05:06.485Z,17.9
2022-09-11T11:06:12.890Z,17.9
2022-09-11T11:07:10.079Z,17.9
2022-09-11T11:08:09.205Z,17.8
2022-09-11T11:09:15.457Z,17.7
2022-09-11T11:10:12.098Z,17.7
2022-09-11T11:11:13.458Z,17.6
2022-09-11T11:12:03.477Z,17.6
2022-09-11T11:13:06.916Z,17.5
2022-09-11T11:14:12.103Z,17.5
2022-09-11T11:15:18.432Z,17.4
2022-09-11T11:16:01.286Z,17.4
2022-09-11T11:17:13.004Z,17.3
2022-09-11T11:18:17.532Z,17.2
2022-09-11T11:19:20.131Z,17.0
2022-09-11T11:20:13.521Z,17.0
2022-09-11T11:21:17.166Z,17.1
2022-09-11T11:22:17.658Z,17.1
2022-09-11T11:23:14.560Z,17.1
2022-09-11T11:24:20.208Z,17.1
2022-09-11T11:25:20.134Z,17.1
2022-09-11T11:26:10.174Z,17.1
2022-09-11T11:27:20.153Z,17.1
2022-09-11T11:28:06.564Z,17.1
2022-09-11T11:29:11.111Z,17.1
2022-09-11T11:30:08.497Z,17.0
2022-09-11T11:31:15.888Z,17.1
2022-09-11T11:32:14.758Z,17.1
2022-09-11T11:33:20.155Z,17.2
2022-09-11T11:34:10.170Z,17.2
2022-09-11T11:35:10.160Z,17.2
2022-09-11T11:36:02.260Z,17.1
2022-09-11T11:37:12.392Z,17.2
2022-09-11T11:38:11.958Z,17.3
2022-09-11T11:39:14.957Z,17.4
2022-09-11T11:40:20.209Z,17.4
2022-09-11T11:41:11.636Z,17.4
2022-09-11T11:42:03.537Z,17.4
2022-09-11T11:43:08.526Z,17.4
2022-09-11T11:44:04.786Z,17.4
2022-09-11T11:45:03.761Z,17.4
2022-09-11T11:46:09.237Z,17.4
2022-09-11T11:47:04.299Z,17.3
2022-09-11T11:48:04.651Z,17.3
2022-09-11T11:49:04.777Z,17.4
2022-09-11T11:50:10.391Z,17.5
2022-09-11T11:51:05.277Z,17.6
2022-09-11T11:52:15.949Z,17.7
2022-09-11T11:53:11.021Z,17.7
2022-09-11T11:54:05.985Z,17.7
2022-09-11T11:55:13.512Z,17.7
2022-09-11T11:56:01.232Z,17.7
2022-09-11T11:57:08.116Z,17.6
2022-09-11T11:58:15.078Z,17.4
2022-09-11T11:59:16.656Z,17.2
2022-09-11T12:00:05.709Z,17.2
2022-09-11T12:01:05.657Z,17.1
2022-09-11T12:02:12.845Z,17.2
2022-09-11T12:03:08.715Z,17.2
2022-09-11T12:04:08.557Z,17.2
2022-09-11T12:05:12.146Z,17.2
2022-09-11T12:06:00.231Z,17.2
2022-09-11T12:07:03.083Z,17.2
2022-09-11T12:08:00.643Z,17.1
2022-09-11T12:09:02.569Z,17.0
2022-09-11T12:10:03.306Z,17.0
2022-09-11T12:11:04.610Z,17.0
2022-09-11T12:12:05.344Z,16.9
2022-09-11T12:13:02.664Z,16.9
2022-09-11T12:14:00.663Z,16.8
2022-09-11T12:15:07.481Z,16.7
2022-09-11T12:16:11.083Z,16.6
2022-09-11T12:17:18.825Z,16.4
2022-09-11T12:18:01.673Z,16.4
2022-09-11T12:19:03.067Z,16.3
2022-09-11T12:20:10.167Z,16.2
2022-09-11T12:21:20.130Z,16.1
2022-09-11T12:22:09.154Z,16.1
2022-09-11T12:23:00.492Z,15.9
2022-09-11T12:24:00.213Z,15.8
2022-09-11T12:25:00.259Z,15.8
2022-09-11T12:26:13.213Z,15.7
2022-09-11T12:27:20.137Z,15.6
2022-09-11T12:28:20.148Z,15.6
2022-09-11T12:29:10.193Z,15.6
2022-09-11T12:30:17.564Z,15.6
2022-09-11T12:31:00.302Z,15.6
2022-09-11T12:32:00.211Z,15.6
2022-09-11T12:33:00.396Z,15.6
2022-09-11T12:34:00.262Z,15.6
2022-09-11T12:35:11.725Z,15.7
2022-09-11T12:36:03.452Z,15.7
2022-09-11T12:37:04.633Z,15.8
2022-09-11T12:38:09.509Z,15.8
2022-09-11T12:39:04.018Z,15.8
2022-09-11T12:40:11.284Z,15.9
2022-09-11T12:41:05.618Z,15.9
2022-09-11T12:42:20.126Z,15.9
2022-09-11T12:43:14.889Z,16.0
2022-09-11T12:44:01.368Z,16.0
2022-09-11T12:45:00.390Z,16.0
2022-09-11T12:46:03.019Z,15.9
2022-09-11T12:47:00.251Z,16.0
2022-09-11T12:48:04.808Z,16.0
2022-09-11T12:49:22.228Z,16.0
2022-09-11T12:50:03.521Z,16.0
2022-09-11T12:51:02.542Z,16.0
2022-09-11T12:52:00.295Z,16.1
2022-09-11T12:53:01.836Z,16.1
2022-09-11T12:54:03.567Z,16.2
2022-09-11T12:55:06.708Z,16.2
2022-09-11T12:56:04.229Z,16.3
2022-09-11T12:57:05.607Z,16.3
2022-09-11T12:58:04.371Z,16.4
2022-09-11T12:59:03.871Z,16.4
2022-09-11T13:00:05.862Z,16.5
2022-09-11T13:01:10.278Z,16.5
2022-09-11T13:02:03.867Z,16.5
2022-09-11T13:03:03.481Z,16.5
2022-09-11T13:04:10.167Z,16.5
2022-09-11T13:05:03.779Z,16.5
2022-09-11T13:06:05.826Z,16.6
2022-09-11T13:07:04.349Z,16.6
2022-09-11T13:08:05.481Z,16.6
2022-09-11T13:09:01.807Z,16.6
2022-09-11T13:10:05.567Z,16.6
2022-09-11T13:11:20.124Z,16.7
2022-09-11T13:12:17.621Z,16.7
2022-09-11T13:13:01.821Z,16.7
2022-09-11T13:14:01.016Z,16.6
2022-09-11T13:15:00.254Z,16.6
2022-09-11T13:16:20.149Z,16.6
2022-09-11T13:17:02.695Z,16.6
2022-09-11T13:18:00.278Z,16.6